createdAt,value
2023-02-19T00:00:15.497Z,101058.69
2023-02-19T00:02:43.890Z,101068.94
2023-02-19T00:05:12.520Z,101065.56
2023-02-19T00:07:38.995Z,101068.28
2023-02-19T00:10:06.156Z,101061.28
2023-02-19T00:12:32.567Z,101052.03
2023-02-19T00:14:59.043Z,101054.09
2023-02-19T00:17:35.983Z,101046.28
2023-02-19T00:20:02.552Z,101044.56
2023-02-19T00:22:30.751Z,101038.41
2023-02-19T00:24:59.471Z,101050.34
2023-02-19T00:27:28.376Z,101055.28
2023-02-19T00:29:54.978Z,101046.94
2023-02-19T00:32:21.420Z,101045.25
2023-02-19T00:34:50.950Z,101035.16
2023-02-19T00:37:17.444Z,101050.00
2023-02-19T00:39:49.955Z,101056.31
2023-02-19T00:42:16.368Z,101039.94
2023-02-19T00:44:47.624Z,101055.28
2023-02-19T00:47:18.173Z,101051.00
2023-02-19T00:49:44.582Z,101056.81
2023-02-19T00:52:11.222Z,101042.84
2023-02-19T00:54:43.572Z,101028.91
2023-02-19T00:57:10.245Z,101030.06
2023-02-19T00:59:39.597Z,101035.53
2023-02-19T01:02:13.534Z,101036.38
2023-02-19T01:04:40.408Z,101043.88
2023-02-19T01:07:10.191Z,101044.69
2023-02-19T01:09:41.797Z,101041.16
2023-02-19T01:12:08.382Z,101046.59
2023-02-19T01:14:40.769Z,101042.16
2023-02-19T01:17:09.773Z,101055.09
2023-02-19T01:19:36.320Z,101054.41
2023-02-19T01:22:02.740Z,101051.69
2023-02-19T01:24:32.339Z,101051.19
2023-02-19T01:27:13.139Z,101069.38
2023-02-19T01:29:42.809Z,101065.81
2023-02-19T01:32:10.063Z,101066.81
2023-02-19T01:34:38.938Z,101069.53
2023-02-19T01:37:05.925Z,101064.28
2023-02-19T01:39:32.559Z,101051.66
2023-02-19T01:41:58.964Z,101032.09
2023-02-19T01:44:33.872Z,101034.31
2023-02-19T01:47:02.617Z,101036.31
2023-02-19T01:49:39.832Z,101034.97
2023-02-19T01:52:15.780Z,101035.28
2023-02-19T01:54:45.646Z,101031.88
2023-02-19T01:57:19.489Z,101041.91
2023-02-19T01:59:50.210Z,101040.03
2023-02-19T02:02:16.795Z,101047.34
2023-02-19T02:04:45.699Z,101042.09
2023-02-19T02:07:32.591Z,101038.66
2023-02-19T02:10:17.876Z,101022.00
2023-02-19T02:12:44.570Z,101022.00
2023-02-19T02:15:15.016Z,101020.44
2023-02-19T02:18:00.392Z,101017.91
2023-02-19T02:20:53.209Z,101016.19
2023-02-19T02:23:33.608Z,101009.72
2023-02-19T02:26:11.686Z,101000.88
2023-02-19T02:29:12.527Z,101004.59
2023-02-19T02:31:42.140Z,101008.16
2023-02-19T02:34:46.721Z,101002.91
2023-02-19T02:37:14.814Z,100996.63
2023-02-19T02:39:47.058Z,100993.19
2023-02-19T02:42:28.778Z,100993.19
2023-02-19T02:45:23.201Z,100994.38
2023-02-19T02:47:53.047Z,100981.63
2023-02-19T02:50:27.852Z,100982.63
2023-02-19T02:53:25.349Z,100979.91
2023-02-19T02:55:54.702Z,100977.19
2023-02-19T02:58:24.573Z,100986.22
2023-02-19T03:01:18.269Z,100989.78
2023-02-19T03:03:54.863Z,100984.50
2023-02-19T03:06:24.699Z,100989.28
2023-02-19T03:09:06.904Z,100989.28
2023-02-19T03:12:02.891Z,100990.28
2023-02-19T03:15:01.037Z,100993.34
2023-02-19T03:17:58.933Z,100985.53
2023-02-19T03:20:30.549Z,100986.00
2023-02-19T03:23:00.943Z,100985.31
2023-02-19T03:25:50.443Z,100993.66
2023-02-19T03:28:51.246Z,100993.78
2023-02-19T03:31:25.452Z,101005.72
2023-02-19T03:33:58.859Z,101006.88
2023-02-19T03:36:42.143Z,101008.06
2023-02-19T03:39:11.842Z,100995.81
2023-02-19T03:41:46.924Z,100998.88
2023-02-19T03:44:29.114Z,101003.78
2023-02-19T03:47:09.889Z,101006.81
2023-02-19T03:49:57.871Z,101012.56
2023-02-19T03:52:46.692Z,101005.75
2023-02-19T03:55:18.001Z,101000.63
2023-02-19T03:58:07.816Z,100992.81
2023-02-19T04:01:09.205Z,100992.13
2023-02-19T04:04:14.271Z,100994.00
2023-02-19T04:06:45.050Z,101005.03
2023-02-19T04:09:14.535Z,100989.72
2023-02-19T04:11:44.373Z,100990.03
2023-02-19T04:14:23.114Z,100997.19
2023-02-19T04:17:07.578Z,101001.09
2023-02-19T04:19:37.545Z,101000.91
2023-02-19T04:22:19.879Z,101004.50
2023-02-19T04:24:53.937Z,100998.53
2023-02-19T04:27:20.818Z,100995.81
2023-02-19T04:29:52.264Z,100994.09
2023-02-19T04:32:22.222Z,100997.84
2023-02-19T04:34:48.876Z,101001.56
2023-02-19T04:37:36.998Z,101007.88
2023-02-19T04:40:03.853Z,101000.72
2023-02-19T04:42:30.791Z,100988.84
2023-02-19T04:45:03.734Z,100992.41
2023-02-19T04:47:32.291Z,101003.97
2023-02-19T04:50:01.232Z,101017.72
2023-02-19T04:52:30.300Z,101014.16
2023-02-19T04:54:59.212Z,101017.56
2023-02-19T04:57:25.650Z,101017.56
2023-02-19T04:59:58.372Z,101014.84
2023-02-19T05:02:29.587Z,101017.56
2023-02-19T05:05:19.182Z,101018.41
2023-02-19T05:07:46.953Z,101020.94
2023-02-19T05:10:14.013Z,101022.00
2023-02-19T05:12:40.722Z,101013.13
2023-02-19T05:15:07.513Z,101016.03
2023-02-19T05:20:25.975Z,101025.34
2023-02-19T05:22:52.438Z,101020.75
2023-02-19T05:25:18.945Z,101018.03
2023-02-19T05:27:45.511Z,101017.88
2023-02-19T05:30:12.552Z,101006.31
2023-02-19T05:32:47.725Z,101016.16
2023-02-19T05:35:16.790Z,101016.34
2023-02-19T05:37:45.524Z,101024.50
2023-02-19T05:40:19.070Z,101024.66
2023-02-19T05:42:45.510Z,101026.66
2023-02-19T05:45:20.536Z,101026.84
2023-02-19T05:47:49.728Z,101022.25
2023-02-19T05:50:39.399Z,101028.72
2023-02-19T05:53:09.036Z,101023.59
2023-02-19T05:55:37.327Z,101022.59
2023-02-19T05:58:04.129Z,101028.03
2023-02-19T06:00:32.335Z,101020.69
2023-02-19T06:02:58.836Z,101026.31
2023-02-19T06:05:25.621Z,101036.31
2023-02-19T06:07:52.235Z,101036.66
2023-02-19T06:10:18.773Z,101038.50
2023-02-19T06:12:45.331Z,101042.09
2023-02-19T06:15:11.870Z,101058.53
2023-02-19T06:17:56.451Z,101063.13
2023-02-19T06:23:03.427Z,101069.59
2023-02-19T06:25:29.834Z,101063.31
2023-02-19T06:27:58.863Z,101063.31
2023-02-19T06:30:25.553Z,101068.34
2023-02-19T06:32:53.754Z,101071.75
2023-02-19T06:35:20.481Z,101069.03
2023-02-19T06:37:48.045Z,101072.78
2023-02-19T06:40:14.590Z,101081.47
2023-02-19T06:42:43.658Z,101082.63
2023-02-19T06:45:24.643Z,101078.22
2023-02-19T06:47:53.439Z,101093.19
2023-02-19T06:50:29.503Z,101078.56
2023-02-19T06:52:56.677Z,101088.44
2023-02-19T06:55:26.518Z,101094.72
2023-02-19T06:57:53.026Z,101093.25
2023-02-19T07:00:19.777Z,101086.97
2023-02-19T07:02:46.312Z,101100.56
2023-02-19T07:05:12.880Z,101102.09
2023-02-19T07:07:39.692Z,101102.50
2023-02-19T07:10:07.042Z,101101.44
2023-02-19T07:12:36.085Z,101109.13
2023-02-19T07:15:04.552Z,101111.72
2023-02-19T07:17:31.028Z,101121.25
2023-02-19T07:20:06.823Z,101128.25
2023-02-19T07:22:33.345Z,101128.44
2023-02-19T07:25:02.044Z,101138.53
2023-02-19T07:27:28.766Z,101148.41
2023-02-19T07:29:58.051Z,101146.91
2023-02-19T07:32:24.617Z,101145.75
2023-02-19T07:34:51.147Z,101149.69
2023-02-19T07:37:19.936Z,101158.91
2023-02-19T07:39:51.698Z,101151.13
2023-02-19T07:42:26.318Z,101153.00
2023-02-19T07:44:53.011Z,101149.31
2023-02-19T07:47:21.840Z,101148.84
2023-02-19T07:49:48.264Z,101134.91
2023-02-19T07:52:20.130Z,101136.97
2023-02-19T07:54:49.689Z,101134.94
2023-02-19T07:57:18.693Z,101140.38
2023-02-19T07:59:45.233Z,101138.50
2023-02-19T08:02:38.183Z,101149.09
2023-02-19T08:05:06.483Z,101147.03
2023-02-19T08:07:34.737Z,101151.28
2023-02-19T08:10:20.969Z,101149.94
2023-02-19T08:13:14.001Z,101133.31
2023-02-19T08:15:43.516Z,101141.84
2023-02-19T08:18:12.276Z,101142.22
2023-02-19T08:20:38.986Z,101140.19
2023-02-19T08:23:06.394Z,101148.38
2023-02-19T08:25:33.254Z,101163.75
2023-02-19T08:28:06.156Z,101168.56
2023-02-19T08:30:33.464Z,101169.22
2023-02-19T08:33:04.419Z,101178.13
2023-02-19T08:35:31.023Z,101168.91
2023-02-19T08:38:01.615Z,101176.44
2023-02-19T08:40:30.348Z,101174.25
2023-02-19T08:45:47.568Z,101181.59
2023-02-19T08:48:14.657Z,101196.59
2023-02-19T08:50:41.578Z,101193.19
2023-02-19T08:53:11.106Z,101192.34
2023-02-19T08:55:38.549Z,101202.41
2023-02-19T08:58:05.271Z,101216.75
2023-02-19T09:00:31.729Z,101218.78
2023-02-19T09:02:58.672Z,101227.47
2023-02-19T09:05:28.231Z,101230.38
2023-02-19T09:07:54.840Z,101227.00
2023-02-19T09:10:21.326Z,101235.50
2023-02-19T09:12:47.910Z,101242.53
2023-02-19T09:15:14.573Z,101244.91
2023-02-19T09:17:41.504Z,101243.53
2023-02-19T09:20:18.199Z,101256.66
2023-02-19T09:22:47.677Z,101255.28
2023-02-19T09:25:14.336Z,101260.56
2023-02-19T09:27:43.065Z,101265.50
2023-02-19T09:30:17.955Z,101266.16
2023-02-19T09:32:48.894Z,101261.41
2023-02-19T09:35:15.911Z,101265.66
2023-02-19T09:37:44.876Z,101272.84
2023-02-19T09:40:21.475Z,101270.41
2023-02-19T09:42:50.802Z,101280.19
2023-02-19T09:45:26.438Z,101277.44
2023-02-19T09:48:03.467Z,101293.53
2023-02-19T09:50:48.818Z,101285.84
2023-02-19T09:53:25.393Z,101285.13
2023-02-19T09:55:59.221Z,101296.25
2023-02-19T09:58:39.181Z,101283.41
2023-02-19T10:01:07.802Z,101302.72
2023-02-19T10:03:40.793Z,101300.31
2023-02-19T10:06:15.007Z,101290.59
2023-02-19T10:08:45.902Z,101283.75
2023-02-19T10:11:15.910Z,101281.19
2023-02-19T10:13:54.109Z,101281.50
2023-02-19T10:16:30.770Z,101275.50
2023-02-19T10:19:02.983Z,101275.19
2023-02-19T10:21:31.869Z,101275.69
2023-02-19T10:24:03.016Z,101277.72
2023-02-19T10:26:39.823Z,101269.63
2023-02-19T10:29:06.950Z,101276.47
2023-02-19T10:31:36.357Z,101268.97
2023-02-19T10:34:17.082Z,101275.13
2023-02-19T10:36:51.135Z,101277.84
2023-02-19T10:39:23.724Z,101270.84
2023-02-19T10:41:51.411Z,101274.63
2023-02-19T10:44:32.569Z,101290.09
2023-02-19T10:47:02.563Z,101282.25
2023-02-19T10:49:36.207Z,101294.16
2023-02-19T10:52:20.387Z,101292.78
2023-02-19T10:55:19.718Z,101292.56
2023-02-19T10:57:47.046Z,101308.56
2023-02-19T11:00:16.190Z,101297.63
2023-02-19T11:02:44.069Z,101307.72
2023-02-19T11:05:15.026Z,101319.50
2023-02-19T11:07:48.199Z,101317.84
2023-02-19T11:10:37.310Z,101315.03
2023-02-19T11:13:06.539Z,101331.72
2023-02-19T11:15:34.355Z,101344.19
2023-02-19T11:18:27.007Z,101357.72
2023-02-19T11:21:07.367Z,101356.03
2023-02-19T11:23:36.871Z,101360.34
2023-02-19T11:26:07.172Z,101364.09
2023-02-19T11:28:37.660Z,101367.50
2023-02-19T11:31:19.657Z,101348.84
2023-02-19T11:33:55.587Z,101364.91
2023-02-19T11:36:33.224Z,101358.94
2023-02-19T11:39:15.212Z,101371.56
2023-02-19T11:41:49.952Z,101388.94
2023-02-19T11:44:44.856Z,101355.22
2023-02-19T11:47:26.108Z,101344.19
2023-02-19T11:50:04.273Z,101344.94
2023-02-19T11:53:01.487Z,101328.88
2023-02-19T11:55:59.167Z,101316.75
2023-02-19T11:58:46.584Z,101317.09
2023-02-19T12:01:31.459Z,101327.38
2023-02-19T12:04:16.049Z,101351.31
2023-02-19T12:06:54.608Z,101348.09
2023-02-19T12:09:46.404Z,101350.44
2023-02-19T12:12:37.963Z,101335.19
2023-02-19T12:15:26.825Z,101351.16
2023-02-19T12:18:34.718Z,101357.59
2023-02-19T12:21:13.323Z,101352.47
2023-02-19T12:23:54.158Z,101340.66
2023-02-19T12:27:02.420Z,101346.28
2023-02-19T12:30:01.278Z,101331.78
2023-02-19T12:32:51.275Z,101350.28
2023-02-19T12:35:17.613Z,101359.44
2023-02-19T12:37:50.062Z,101343.41
2023-02-19T12:40:49.369Z,101339.91
2023-02-19T12:43:27.313Z,101339.13
2023-02-19T12:46:08.799Z,101328.06
2023-02-19T12:48:58.932Z,101322.25
2023-02-19T12:51:58.056Z,101324.28
2023-02-19T12:54:44.398Z,101333.06
2023-02-19T12:57:15.703Z,101327.75
2023-02-19T13:00:17.700Z,101327.97
2023-02-19T13:02:53.520Z,101314.28
2023-02-19T13:05:44.235Z,101325.16
2023-02-19T13:08:39.571Z,101324.19
2023-02-19T13:11:18.471Z,101338.31
2023-02-19T13:14:06.431Z,101344.28
2023-02-19T13:16:37.225Z,101349.63
2023-02-19T13:19:04.953Z,101348.06
2023-02-19T13:21:55.006Z,101344.38
2023-02-19T13:24:27.915Z,101347.13
2023-02-19T13:26:54.415Z,101358.63
2023-02-19T13:29:45.420Z,101345.94
2023-02-19T13:32:21.001Z,101330.16
2023-02-19T13:35:29.163Z,101350.28
2023-02-19T13:38:03.048Z,101349.22
2023-02-19T13:40:36.803Z,101338.00
2023-02-19T13:43:06.658Z,101345.06
2023-02-19T13:45:41.067Z,101354.25
2023-02-19T13:48:25.918Z,101343.47
2023-02-19T13:51:23.640Z,101330.94
2023-02-19T13:54:00.707Z,101320.09
2023-02-19T13:56:30.078Z,101329.78
2023-02-19T13:59:25.919Z,101319.09
2023-02-19T14:01:58.525Z,101321.44
2023-02-19T14:04:56.069Z,101319.47
2023-02-19T14:07:33.477Z,101323.66
2023-02-19T14:10:05.566Z,101316.09
2023-02-19T14:12:37.134Z,101330.53
2023-02-19T14:16:02.879Z,101321.31
2023-02-19T14:18:46.542Z,101348.91
2023-02-19T14:21:38.812Z,101344.66
2023-02-19T14:24:12.159Z,101339.91
2023-02-19T14:26:41.249Z,101347.59
2023-02-19T14:29:15.186Z,101337.66
2023-02-19T14:31:44.975Z,101377.94
2023-02-19T14:34:25.417Z,101358.09
2023-02-19T14:36:57.598Z,101359.09
2023-02-19T14:39:37.973Z,101363.72
2023-02-19T14:42:33.518Z,101376.59
2023-02-19T14:45:06.190Z,101377.97
2023-02-19T14:47:38.422Z,101377.84
2023-02-19T14:50:15.077Z,101367.25
2023-02-19T14:52:49.352Z,101364.34
2023-02-19T14:55:23.364Z,101364.38
2023-02-19T14:57:53.985Z,101353.75
2023-02-19T15:00:29.152Z,101347.78
2023-02-19T15:02:59.602Z,101358.78
2023-02-19T15:05:37.722Z,101358.63
2023-02-19T15:08:11.656Z,101349.91
2023-02-19T15:10:39.258Z,101358.13
2023-02-19T15:13:15.058Z,101347.72
2023-02-19T15:15:47.922Z,101356.47
2023-02-19T15:18:27.268Z,101360.56
2023-02-19T15:21:01.216Z,101370.13
2023-02-19T15:23:30.707Z,101367.56
2023-02-19T15:25:58.445Z,101371.88
2023-02-19T15:28:25.013Z,101360.22
2023-02-19T15:31:06.508Z,101370.31
2023-02-19T15:33:33.929Z,101360.78
2023-02-19T15:36:09.499Z,101369.81
2023-02-19T15:38:46.983Z,101375.28
2023-02-19T15:41:21.232Z,101379.38
2023-02-19T15:44:07.994Z,101379.72
2023-02-19T15:46:38.646Z,101384.69
2023-02-19T15:49:18.607Z,101381.09
2023-02-19T15:51:59.749Z,101389.84
2023-02-19T15:54:42.811Z,101388.78
2023-02-19T15:57:20.738Z,101400.38
2023-02-19T16:00:05.169Z,101398.84
2023-02-19T16:02:37.465Z,101388.59
2023-02-19T16:05:18.189Z,101392.53
2023-02-19T16:08:06.087Z,101399.34
2023-02-19T16:10:35.634Z,101412.34
2023-02-19T16:13:07.160Z,101412.50
2023-02-19T16:15:36.674Z,101412.47
2023-02-19T16:18:05.659Z,101416.56
2023-02-19T16:20:35.014Z,101400.34
2023-02-19T16:23:14.248Z,101394.47
2023-02-19T16:25:49.809Z,101408.41
2023-02-19T16:28:25.713Z,101421.47
2023-02-19T16:31:09.911Z,101420.56
2023-02-19T16:33:50.317Z,101402.97
2023-02-19T16:36:35.517Z,101409.72
2023-02-19T16:39:07.740Z,101405.00
2023-02-19T16:41:34.481Z,101408.69
2023-02-19T16:44:17.203Z,101406.22
2023-02-19T16:46:46.250Z,101403.44
2023-02-19T16:49:12.938Z,101397.53
2023-02-19T16:51:44.114Z,101404.63
2023-02-19T16:54:14.452Z,101405.28
2023-02-19T16:56:41.776Z,101411.03
2023-02-19T16:59:15.807Z,101413.38
2023-02-19T17:01:47.911Z,101414.53
2023-02-19T17:04:16.081Z,101411.97
2023-02-19T17:06:43.208Z,101417.53
2023-02-19T17:09:09.921Z,101423.84
2023-02-19T17:11:36.732Z,101430.88
2023-02-19T17:14:03.430Z,101430.34
2023-02-19T17:16:49.265Z,101436.16
2023-02-19T17:19:18.361Z,101438.88
2023-02-19T17:21:46.595Z,101441.91
2023-02-19T17:24:14.109Z,101449.53
2023-02-19T17:26:40.820Z,101458.25
2023-02-19T17:29:08.787Z,101460.97
2023-02-19T17:31:37.051Z,101460.97
2023-02-19T17:34:11.514Z,101465.00
2023-02-19T17:36:38.034Z,101464.00
2023-02-19T17:39:07.096Z,101474.19
2023-02-19T17:41:37.396Z,101478.94
2023-02-19T17:44:06.756Z,101490.81
2023-02-19T17:46:36.971Z,101502.56
2023-02-19T17:49:03.634Z,101497.59
2023-02-19T17:51:30.394Z,101502.34
2023-02-19T17:54:00.525Z,101507.91
2023-02-19T17:56:29.617Z,101506.19
2023-02-19T17:59:00.144Z,101508.09
2023-02-19T18:01:26.996Z,101509.22
2023-02-19T18:03:53.734Z,101497.81
2023-02-19T18:06:26.398Z,101504.09
2023-02-19T18:08:53.713Z,101515.00
2023-02-19T18:11:25.173Z,101519.88
2023-02-19T18:14:00.551Z,101513.88
2023-02-19T18:16:38.079Z,101520.63
2023-02-19T18:19:07.292Z,101516.38
2023-02-19T18:21:33.827Z,101516.06
2023-02-19T18:24:02.600Z,101525.22
2023-02-19T18:26:29.080Z,101524.22
2023-02-19T18:28:55.566Z,101529.66
2023-02-19T18:31:22.458Z,101534.25
2023-02-19T18:33:52.260Z,101528.13
2023-02-19T18:36:21.367Z,101539.69
2023-02-19T18:38:50.105Z,101549.72
2023-02-19T18:41:23.579Z,101547.72
2023-02-19T18:43:52.608Z,101554.84
2023-02-19T18:46:21.424Z,101566.59
2023-02-19T18:48:47.860Z,101567.44
2023-02-19T18:51:17.320Z,101574.44
2023-02-19T18:53:47.670Z,101572.75
2023-02-19T18:56:14.045Z,101579.88
2023-02-19T18:58:44.097Z,101581.06
2023-02-19T19:01:13.627Z,101580.06
2023-02-19T19:03:40.341Z,101586.91
2023-02-19T19:06:06.928Z,101585.19
2023-02-19T19:08:35.489Z,101586.91
2023-02-19T19:11:01.856Z,101575.31
2023-02-19T19:13:36.213Z,101579.34
2023-02-19T19:16:03.824Z,101577.66
2023-02-19T19:18:37.523Z,101582.22
2023-02-19T19:21:07.912Z,101587.81
2023-02-19T19:23:37.231Z,101569.94
2023-02-19T19:26:07.080Z,101579.53
2023-02-19T19:28:33.643Z,101587.31
2023-02-19T19:31:00.855Z,101587.75
2023-02-19T19:33:28.108Z,101586.19
2023-02-19T19:35:54.994Z,101583.75
2023-02-19T19:38:21.459Z,101584.91
2023-02-19T19:40:47.911Z,101583.66
2023-02-19T19:43:14.319Z,101578.47
2023-02-19T19:45:41.013Z,101581.50
2023-02-19T19:48:07.582Z,101579.78
2023-02-19T19:50:34.046Z,101583.78
2023-02-19T19:53:02.970Z,101578.53
2023-02-19T19:55:34.326Z,101575.06
2023-02-19T19:58:01.010Z,101580.97
2023-02-19T20:00:27.876Z,101576.84
2023-02-19T20:02:59.852Z,101581.41
2023-02-19T20:05:26.411Z,101581.53
2023-02-19T20:07:56.201Z,101586.28
2023-02-19T20:10:29.564Z,101583.69
2023-02-19T20:12:56.242Z,101596.59
2023-02-19T20:15:23.194Z,101595.88
2023-02-19T20:17:50.276Z,101598.88
2023-02-19T20:20:19.196Z,101594.88
2023-02-19T20:22:48.207Z,101592.16
2023-02-19T20:25:32.950Z,101586.16
2023-02-19T20:28:05.649Z,101593.00
2023-02-19T20:30:32.202Z,101587.72
2023-02-19T20:33:14.069Z,101581.56
2023-02-19T20:35:40.754Z,101593.00
2023-02-19T20:38:10.391Z,101606.75
2023-02-19T20:40:37.166Z,101610.47
2023-02-19T20:43:03.736Z,101612.34
2023-02-19T20:45:31.128Z,101608.88
2023-02-19T20:48:02.340Z,101611.59
2023-02-19T20:50:29.042Z,101605.47
2023-02-19T20:52:55.856Z,101609.88
2023-02-19T20:55:27.030Z,101614.75
2023-02-19T20:57:53.593Z,101615.75
2023-02-19T21:00:31.073Z,101616.63
2023-02-19T21:03:00.527Z,101617.47
2023-02-19T21:05:29.639Z,101610.59
2023-02-19T21:07:56.003Z,101609.88
2023-02-19T21:10:26.178Z,101614.16
2023-02-19T21:12:54.473Z,101610.03
2023-02-19T21:15:23.487Z,101613.78
2023-02-19T21:17:50.359Z,101617.47
2023-02-19T21:20:20.277Z,101609.44
2023-02-19T21:22:46.842Z,101598.59
2023-02-19T21:25:16.392Z,101599.16
2023-02-19T21:27:42.923Z,101610.19
2023-02-19T21:30:09.634Z,101608.31
2023-02-19T21:32:36.164Z,101596.44
2023-02-19T21:35:02.656Z,101591.28
2023-02-19T21:37:29.012Z,101599.44
2023-02-19T21:39:55.571Z,101608.59
2023-02-19T21:42:22.039Z,101595.88
2023-02-19T21:44:50.971Z,101602.16
2023-02-19T21:47:19.514Z,101606.91
2023-02-19T21:49:46.019Z,101608.88
2023-02-19T21:52:14.990Z,101605.19
2023-02-19T21:54:43.756Z,101618.03
2023-02-19T21:57:10.285Z,101626.91
2023-02-19T21:59:38.969Z,101632.50
2023-02-19T22:02:08.968Z,101632.66
2023-02-19T22:04:35.399Z,101633.78
2023-02-19T22:07:01.770Z,101628.91
2023-02-19T22:09:28.342Z,101630.94
2023-02-19T22:11:57.033Z,101634.50
2023-02-19T22:14:23.388Z,101627.06
2023-02-19T22:16:52.260Z,101627.50
2023-02-19T22:19:18.711Z,101627.34
2023-02-19T22:21:47.444Z,101622.22
2023-02-19T22:24:20.957Z,101627.78
2023-02-19T22:26:47.996Z,101622.34
2023-02-19T22:29:15.507Z,101618.78
2023-02-19T22:31:42.448Z,101612.50
2023-02-19T22:34:09.571Z,101627.06
2023-02-19T22:36:39.028Z,101623.22
2023-02-19T22:39:07.873Z,101622.06
2023-02-19T22:41:37.067Z,101624.94
2023-02-19T22:44:03.962Z,101624.09
2023-02-19T22:46:31.115Z,101622.03
2023-02-19T22:49:03.560Z,101625.19
2023-02-19T22:51:32.501Z,101624.63
2023-02-19T22:54:01.842Z,101627.47
2023-02-19T22:56:29.045Z,101636.03
2023-02-19T22:58:57.150Z,101643.47
2023-02-19T23:01:24.692Z,101642.50
2023-02-19T23:03:56.350Z,101648.63
2023-02-19T23:06:36.647Z,101651.34
2023-02-19T23:09:29.263Z,101646.31
2023-02-19T23:12:25.709Z,101648.22
2023-02-19T23:15:07.414Z,101650.75
2023-02-19T23:17:36.199Z,101647.19
2023-02-19T23:20:07.494Z,101650.63
2023-02-19T23:22:36.874Z,101660.06
2023-02-19T23:25:04.074Z,101653.91
2023-02-19T23:27:30.577Z,101661.50
2023-02-19T23:29:57.016Z,101650.06
2023-02-19T23:32:28.899Z,101660.94
2023-02-19T23:34:55.309Z,101654.19
2023-02-19T23:37:24.801Z,101649.47
2023-02-19T23:39:51.349Z,101649.47
2023-02-19T23:42:17.878Z,101654.34
2023-02-19T23:44:47.840Z,101644.59
2023-02-19T23:47:16.323Z,101650.31
2023-02-19T23:49:46.593Z,101642.59
2023-02-19T23:52:22.039Z,101638.31
2023-02-19T23:54:51.672Z,101641.31
2023-02-19T23:57:18.215Z,101645.59
2023-02-19T23:59:47.614Z,101655.03
